createdAt,value
2019-03-29T00:02:26.608Z,102282.02
2019-03-29T00:04:55.261Z,102295.20
2019-03-29T00:07:38.587Z,102288.21
2019-03-29T00:09:54.783Z,102284.22
2019-03-29T00:12:23.533Z,102283.72
2019-03-29T00:14:52.222Z,102279.27
2019-03-29T00:17:20.896Z,102282.30
2019-03-29T00:19:49.639Z,102281.54
2019-03-29T00:22:18.330Z,102275.91
2019-03-29T00:24:47.035Z,102275.82
2019-03-29T00:27:15.904Z,102273.91
2019-03-29T00:29:44.553Z,102269.66
2019-03-29T00:32:13.176Z,102279.25
2019-03-29T00:34:42.080Z,102273.48
2019-03-29T00:37:11.099Z,102268.48
2019-03-29T00:39:40.311Z,102265.47
2019-03-29T00:42:09.654Z,102268.30
2019-03-29T00:44:38.397Z,102266.68
2019-03-29T00:47:07.090Z,102257.47
2019-03-29T00:49:35.783Z,102253.53
2019-03-29T00:52:04.513Z,102252.37
2019-03-29T00:54:33.197Z,102244.03
2019-03-29T00:57:01.903Z,102244.19
2019-03-29T00:59:30.583Z,102247.56
2019-03-29T01:01:59.314Z,102249.36
2019-03-29T01:04:28.985Z,102228.91
2019-03-29T01:06:57.785Z,102222.94
2019-03-29T01:09:26.495Z,102225.56
2019-03-29T01:11:55.190Z,102222.47
2019-03-29T01:14:23.848Z,102215.97
2019-03-29T01:16:53.870Z,102217.77
2019-03-29T01:19:22.692Z,102225.81
2019-03-29T01:21:51.436Z,102218.86
2019-03-29T01:24:20.116Z,102213.13
2019-03-29T01:26:48.817Z,102206.69
2019-03-29T01:29:17.568Z,102208.41
2019-03-29T01:31:46.310Z,102216.86
2019-03-29T01:34:15.005Z,102214.54
2019-03-29T01:36:43.754Z,102217.08
2019-03-29T01:39:12.487Z,102212.52
2019-03-29T01:41:41.237Z,102213.22
2019-03-29T01:44:09.925Z,102202.81
2019-03-29T01:46:38.636Z,102208.72
2019-03-29T01:49:07.364Z,102213.31
2019-03-29T01:51:36.064Z,102211.06
2019-03-29T01:54:04.800Z,102198.91
2019-03-29T01:56:33.548Z,102202.05
2019-03-29T01:59:02.281Z,102197.97
2019-03-29T02:01:30.990Z,102201.55
2019-03-29T02:03:59.690Z,102206.51
2019-03-29T02:06:28.406Z,102205.06
2019-03-29T02:08:57.096Z,102201.95
2019-03-29T02:11:25.729Z,102194.10
2019-03-29T02:13:54.421Z,102195.97
2019-03-29T02:16:23.199Z,102198.03
2019-03-29T02:18:51.865Z,102190.52
2019-03-29T02:21:20.536Z,102193.59
2019-03-29T02:23:49.197Z,102192.20
2019-03-29T02:26:17.831Z,102196.13
2019-03-29T02:28:48.063Z,102195.63
2019-03-29T02:31:16.828Z,102199.06
2019-03-29T02:33:45.512Z,102192.80
2019-03-29T02:36:14.179Z,102192.73
2019-03-29T02:38:55.307Z,102191.30
2019-03-29T02:41:13.394Z,102185.92
2019-03-29T02:43:42.060Z,102185.00
2019-03-29T02:46:10.762Z,102191.53
2019-03-29T02:48:40.343Z,102188.14
2019-03-29T02:51:09.030Z,102185.19
2019-03-29T02:53:37.713Z,102188.21
2019-03-29T02:56:06.350Z,102186.36
2019-03-29T02:58:35.144Z,102185.84
2019-03-29T03:01:03.895Z,102179.53
2019-03-29T03:03:32.590Z,102188.75
2019-03-29T03:06:01.309Z,102185.57
2019-03-29T03:08:32.934Z,102182.67
2019-03-29T03:11:00.416Z,102180.55
2019-03-29T03:13:29.114Z,102180.91
2019-03-29T03:15:57.757Z,102179.77
2019-03-29T03:18:26.466Z,102176.80
2019-03-29T03:20:55.164Z,102175.39
2019-03-29T03:23:23.860Z,102175.87
2019-03-29T03:25:52.576Z,102182.86
2019-03-29T03:28:21.237Z,102175.61
2019-03-29T03:30:49.932Z,102178.63
2019-03-29T03:33:18.663Z,102172.38
2019-03-29T03:35:47.345Z,102174.06
2019-03-29T03:38:16.287Z,102168.67
2019-03-29T03:40:44.998Z,102173.00
2019-03-29T03:43:13.699Z,102172.95
2019-03-29T03:45:42.388Z,102175.08
2019-03-29T03:48:11.129Z,102178.91
2019-03-29T03:50:59.043Z,102170.47
2019-03-29T03:53:27.683Z,102165.52
2019-03-29T03:55:57.776Z,102173.95
2019-03-29T03:58:26.644Z,102169.44
2019-03-29T04:00:58.994Z,102166.59
2019-03-29T04:03:28.008Z,102166.49
2019-03-29T04:05:57.277Z,102169.05
2019-03-29T04:08:26.108Z,102170.33
2019-03-29T04:10:54.725Z,102171.64
2019-03-29T04:13:23.410Z,102170.66
2019-03-29T04:15:52.061Z,102166.14
2019-03-29T04:18:20.751Z,102164.28
2019-03-29T04:20:49.450Z,102161.08
2019-03-29T04:23:18.712Z,102158.73
2019-03-29T04:25:47.358Z,102155.95
2019-03-29T04:28:16.138Z,102154.73
2019-03-29T04:30:44.907Z,102160.33
2019-03-29T04:33:13.630Z,102158.70
2019-03-29T04:35:42.321Z,102154.14
2019-03-29T04:38:10.983Z,102150.61
2019-03-29T04:40:39.652Z,102149.44
2019-03-29T04:43:08.340Z,102147.41
2019-03-29T04:45:37.096Z,102148.64
2019-03-29T04:48:05.806Z,102149.20
2019-03-29T04:50:34.519Z,102150.11
2019-03-29T04:53:03.233Z,102151.66
2019-03-29T04:55:31.941Z,102146.92
2019-03-29T04:58:00.630Z,102152.09
2019-03-29T05:00:29.317Z,102152.61
2019-03-29T05:02:58.001Z,102153.95
2019-03-29T05:05:26.741Z,102158.94
2019-03-29T05:07:55.663Z,102166.45
2019-03-29T05:10:24.471Z,102160.81
2019-03-29T05:12:53.208Z,102155.83
2019-03-29T05:15:21.878Z,102153.53
2019-03-29T05:17:50.544Z,102161.18
2019-03-29T05:20:19.263Z,102154.28
2019-03-29T05:22:48.020Z,102154.89
2019-03-29T05:25:16.698Z,102155.12
2019-03-29T05:27:45.465Z,102153.56
2019-03-29T05:30:14.385Z,102158.38
2019-03-29T05:32:43.076Z,102158.06
2019-03-29T05:35:11.900Z,102150.27
2019-03-29T05:37:40.570Z,102149.50
2019-03-29T05:40:10.066Z,102147.44
2019-03-29T05:42:38.770Z,102154.70
2019-03-29T05:45:07.636Z,102148.92
2019-03-29T05:47:36.314Z,102145.44
2019-03-29T05:50:05.528Z,102144.50
2019-03-29T05:52:34.210Z,102138.26
2019-03-29T05:55:02.867Z,102141.12
2019-03-29T05:57:31.571Z,102140.77
2019-03-29T06:00:00.385Z,102140.70
2019-03-29T06:02:29.050Z,102136.91
2019-03-29T06:04:57.853Z,102140.12
2019-03-29T06:07:26.511Z,102150.77
2019-03-29T06:09:55.271Z,102142.55
2019-03-29T06:12:23.942Z,102142.52
2019-03-29T06:14:52.584Z,102137.17
2019-03-29T06:17:21.369Z,102137.20
2019-03-29T06:19:50.080Z,102140.78
2019-03-29T06:22:18.792Z,102144.94
2019-03-29T06:24:47.488Z,102135.68
2019-03-29T06:27:16.186Z,102130.88
2019-03-29T06:29:44.900Z,102135.88
2019-03-29T06:32:13.576Z,102134.34
2019-03-29T06:34:42.254Z,102134.97
2019-03-29T06:37:12.066Z,102124.14
2019-03-29T06:39:41.552Z,102126.48
2019-03-29T06:42:10.208Z,102124.08
2019-03-29T06:44:38.952Z,102117.23
2019-03-29T06:47:07.872Z,102124.36
2019-03-29T06:49:36.594Z,102124.89
2019-03-29T06:52:05.253Z,102124.58
2019-03-29T06:54:34.040Z,102126.07
2019-03-29T06:57:02.729Z,102120.77
2019-03-29T06:59:31.391Z,102118.70
2019-03-29T07:02:00.071Z,102115.62
2019-03-29T07:04:28.738Z,102118.41
2019-03-29T07:06:57.451Z,102129.13
2019-03-29T07:09:26.173Z,102125.56
2019-03-29T07:11:54.979Z,102123.77
2019-03-29T07:14:23.688Z,102123.31
2019-03-29T07:16:52.351Z,102121.41
2019-03-29T07:19:21.017Z,102113.90
2019-03-29T07:21:49.749Z,102113.16
2019-03-29T07:24:18.453Z,102114.52
2019-03-29T07:26:47.155Z,102113.19
2019-03-29T07:29:15.831Z,102111.84
2019-03-29T07:31:44.627Z,102117.18
2019-03-29T07:34:13.263Z,102113.52
2019-03-29T07:36:41.999Z,102110.29
2019-03-29T07:39:10.635Z,102113.28
2019-03-29T07:41:39.338Z,102112.42
2019-03-29T07:44:07.983Z,102114.08
2019-03-29T07:46:36.638Z,102117.47
2019-03-29T07:49:05.294Z,102109.38
2019-03-29T07:51:33.938Z,102112.41
2019-03-29T07:54:02.659Z,102108.84
2019-03-29T07:56:31.349Z,102108.28
2019-03-29T07:59:00.024Z,102107.50
2019-03-29T08:01:28.728Z,102105.38
2019-03-29T08:03:57.446Z,102103.25
2019-03-29T08:06:26.090Z,102102.80
2019-03-29T08:08:54.754Z,102104.55
2019-03-29T08:11:26.309Z,102105.23
2019-03-29T08:13:52.657Z,102101.83
2019-03-29T08:16:21.323Z,102104.55
2019-03-29T08:18:50.105Z,102100.95
2019-03-29T08:21:18.789Z,102099.60
2019-03-29T08:23:47.582Z,102100.13
2019-03-29T08:26:16.253Z,102099.20
2019-03-29T08:29:03.920Z,102095.64
2019-03-29T08:31:32.684Z,102097.34
2019-03-29T08:34:01.893Z,102090.63
2019-03-29T08:36:30.633Z,102087.67
2019-03-29T08:38:59.415Z,102086.69
2019-03-29T08:41:28.217Z,102092.03
2019-03-29T08:43:57.049Z,102089.88
2019-03-29T08:46:25.757Z,102087.07
2019-03-29T08:48:54.452Z,102090.19
2019-03-29T08:51:23.231Z,102085.73
2019-03-29T08:53:51.937Z,102079.86
2019-03-29T08:56:20.765Z,102081.21
2019-03-29T08:58:49.515Z,102072.57
2019-03-29T09:01:19.557Z,102084.55
2019-03-29T09:04:02.672Z,102076.95
2019-03-29T09:06:19.877Z,102077.02
2019-03-29T09:08:48.624Z,102066.15
2019-03-29T09:11:17.312Z,102066.15
2019-03-29T09:13:46.055Z,102072.08
2019-03-29T09:16:14.769Z,102067.73
2019-03-29T09:18:43.498Z,102063.19
2019-03-29T09:21:12.257Z,102061.55
2019-03-29T09:23:40.957Z,102062.36
2019-03-29T09:26:09.650Z,102060.90
2019-03-29T09:28:38.405Z,101750.92
2019-03-29T09:31:07.150Z,102069.50
2019-03-29T09:33:35.884Z,102065.37
2019-03-29T09:36:05.272Z,102067.80
2019-03-29T09:38:34.124Z,102060.37
2019-03-29T09:41:02.807Z,102056.78
2019-03-29T09:43:31.489Z,102050.30
2019-03-29T09:46:03.097Z,102054.47
2019-03-29T09:48:31.841Z,102057.48
2019-03-29T09:51:01.215Z,102050.87
2019-03-29T09:53:29.907Z,102046.23
2019-03-29T09:55:58.679Z,102040.44
2019-03-29T09:58:27.395Z,102038.75
2019-03-29T10:00:56.167Z,102041.14
2019-03-29T10:03:24.893Z,102043.98
2019-03-29T10:05:53.668Z,102027.09
2019-03-29T10:08:22.426Z,102026.99
2019-03-29T10:10:51.114Z,102024.67
2019-03-29T10:13:19.887Z,102026.92
2019-03-29T10:15:51.154Z,102022.77
2019-03-29T10:18:19.048Z,102023.20
2019-03-29T10:20:47.918Z,102012.48
2019-03-29T10:23:16.727Z,102013.93
2019-03-29T10:25:45.420Z,102008.91
2019-03-29T10:28:14.275Z,102000.52
2019-03-29T10:30:46.552Z,101984.40
2019-03-29T10:33:14.484Z,101994.75
2019-03-29T10:35:51.979Z,101988.14
2019-03-29T10:38:13.675Z,101987.89
2019-03-29T10:40:42.358Z,101982.28
2019-03-29T10:43:11.047Z,101975.23
2019-03-29T10:45:40.604Z,101967.55
2019-03-29T10:48:09.628Z,101969.45
2019-03-29T10:50:38.394Z,101957.52
2019-03-29T10:53:07.129Z,101957.25
2019-03-29T10:55:35.927Z,101956.51
2019-03-29T10:58:04.663Z,101946.53
2019-03-29T11:00:40.282Z,101947.86
2019-03-29T11:03:09.281Z,101942.48
2019-03-29T11:05:38.774Z,101940.08
2019-03-29T11:08:11.176Z,101941.68
2019-03-29T11:10:38.755Z,101935.89
2019-03-29T11:13:13.295Z,101940.55
2019-03-29T11:15:38.108Z,101937.42
2019-03-29T11:18:07.641Z,101938.36
2019-03-29T11:20:36.318Z,101928.61
2019-03-29T11:23:05.021Z,101924.36
2019-03-29T11:25:33.771Z,101920.43
2019-03-29T11:28:02.484Z,101920.16
2019-03-29T11:30:41.955Z,101923.12
2019-03-29T11:33:01.666Z,101916.79
2019-03-29T11:35:30.374Z,101912.09
2019-03-29T11:37:59.186Z,101913.19
2019-03-29T11:40:28.028Z,101910.91
2019-03-29T11:42:56.761Z,101905.58
2019-03-29T11:45:25.568Z,101903.39
2019-03-29T11:48:07.521Z,101892.34
2019-03-29T11:50:24.718Z,101887.08
2019-03-29T11:52:53.374Z,101892.31
2019-03-29T11:55:22.189Z,101885.97
2019-03-29T11:57:51.010Z,101874.84
2019-03-29T12:00:31.098Z,101877.67
2019-03-29T12:02:59.774Z,101872.70
2019-03-29T12:05:28.446Z,101869.16
2019-03-29T12:07:59.572Z,101868.11
2019-03-29T12:10:31.231Z,101863.32
2019-03-29T12:13:02.816Z,101856.02
2019-03-29T12:15:31.515Z,101857.95
2019-03-29T12:18:00.920Z,101852.66
2019-03-29T12:20:30.180Z,101852.67
2019-03-29T12:23:01.911Z,101849.26
2019-03-29T12:25:31.901Z,101840.00
2019-03-29T12:28:11.271Z,101848.45
2019-03-29T12:30:41.183Z,101844.64
2019-03-29T12:33:10.682Z,101833.71
2019-03-29T12:35:40.212Z,101831.55
2019-03-29T12:38:16.321Z,101833.00
2019-03-29T12:40:46.125Z,101828.54
2019-03-29T12:43:14.834Z,101822.50
2019-03-29T12:45:43.559Z,101821.97
2019-03-29T12:48:12.509Z,101814.41
2019-03-29T12:50:44.242Z,101813.21
2019-03-29T12:53:13.035Z,101813.67
2019-03-29T12:55:42.004Z,101809.63
2019-03-29T12:58:11.678Z,101809.55
2019-03-29T13:00:41.201Z,101799.45
2019-03-29T13:03:12.653Z,101796.69
2019-03-29T13:05:42.363Z,101786.47
2019-03-29T13:08:12.758Z,101786.92
2019-03-29T13:10:45.141Z,101786.89
2019-03-29T13:13:13.832Z,101784.74
2019-03-29T13:15:42.848Z,101783.98
2019-03-29T13:18:18.446Z,101782.56
2019-03-29T13:20:47.267Z,101779.58
2019-03-29T13:23:15.927Z,101778.84
2019-03-29T13:25:44.788Z,101770.27
2019-03-29T13:28:13.532Z,101766.67
2019-03-29T13:30:51.813Z,101755.27
2019-03-29T13:33:22.911Z,101758.91
2019-03-29T13:35:51.751Z,101753.84
2019-03-29T13:38:20.920Z,101748.02
2019-03-29T13:40:49.651Z,101740.39
2019-03-29T13:43:18.425Z,101732.39
2019-03-29T13:45:47.414Z,101734.50
2019-03-29T13:48:16.224Z,101734.60
2019-03-29T13:50:44.954Z,101728.73
2019-03-29T13:53:13.616Z,101727.05
2019-03-29T13:55:42.471Z,101719.80
2019-03-29T13:58:11.232Z,101715.70
2019-03-29T14:00:40.016Z,101720.95
2019-03-29T14:03:09.009Z,101707.92
2019-03-29T14:05:37.756Z,101706.96
2019-03-29T14:08:06.686Z,101707.10
2019-03-29T14:10:35.523Z,101702.58
2019-03-29T14:13:04.236Z,101696.87
2019-03-29T14:15:32.935Z,101697.61
2019-03-29T14:18:02.057Z,101690.45
2019-03-29T14:20:39.832Z,101687.03
2019-03-29T14:23:08.618Z,101685.38
2019-03-29T14:25:37.370Z,101680.54
2019-03-29T14:28:06.445Z,101677.62
2019-03-29T14:30:35.176Z,101675.71
2019-03-29T14:33:03.925Z,101672.09
2019-03-29T14:35:32.591Z,101673.11
2019-03-29T14:38:01.363Z,101670.68
2019-03-29T14:40:30.142Z,101656.14
2019-03-29T14:42:58.884Z,101660.98
2019-03-29T14:45:27.591Z,101652.80
2019-03-29T14:47:56.287Z,101656.44
2019-03-29T14:50:25.023Z,101646.33
2019-03-29T14:52:53.735Z,101650.47
2019-03-29T14:55:22.482Z,101645.73
2019-03-29T14:57:51.457Z,101643.59
2019-03-29T15:00:35.971Z,101639.05
2019-03-29T15:03:04.781Z,101639.00
2019-03-29T15:05:33.639Z,101634.13
2019-03-29T15:08:02.385Z,101627.88
2019-03-29T15:10:31.316Z,101632.04
2019-03-29T15:13:00.109Z,101621.84
2019-03-29T15:15:28.944Z,101623.91
2019-03-29T15:17:57.640Z,101619.22
2019-03-29T15:20:26.371Z,101612.66
2019-03-29T15:22:55.362Z,101610.61
2019-03-29T15:25:24.047Z,101601.46
2019-03-29T15:27:52.766Z,101604.11
2019-03-29T15:30:21.475Z,101597.93
2019-03-29T15:32:50.243Z,101593.48
2019-03-29T15:35:20.932Z,101592.40
2019-03-29T15:37:49.497Z,101586.95
2019-03-29T15:40:18.242Z,101586.64
2019-03-29T15:42:48.692Z,101584.77
2019-03-29T15:45:20.596Z,101581.14
2019-03-29T15:47:48.290Z,101576.22
2019-03-29T15:50:17.392Z,101578.66
2019-03-29T15:52:47.424Z,101573.83
2019-03-29T15:55:16.108Z,101569.86
2019-03-29T15:57:44.860Z,101565.80
2019-03-29T16:00:14.376Z,101568.02
2019-03-29T16:02:43.145Z,101562.17
2019-03-29T16:05:12.021Z,101563.19
2019-03-29T16:07:40.698Z,101561.34
2019-03-29T16:10:09.424Z,101552.98
2019-03-29T16:12:38.230Z,101549.83
2019-03-29T16:15:07.371Z,101550.86
2019-03-29T16:17:36.159Z,101545.73
2019-03-29T16:20:05.488Z,101542.58
2019-03-29T16:22:35.277Z,101544.77
2019-03-29T16:25:04.392Z,101544.77
2019-03-29T16:27:33.095Z,101540.17
2019-03-29T16:30:02.049Z,101535.74
2019-03-29T16:32:30.751Z,101544.29
2019-03-29T16:34:59.626Z,101537.48
2019-03-29T16:37:28.358Z,101544.58
2019-03-29T16:39:57.084Z,101530.23
2019-03-29T16:42:26.322Z,101528.37
2019-03-29T16:44:58.003Z,101532.72
2019-03-29T16:47:27.006Z,101531.82
2019-03-29T16:49:56.085Z,101527.31
2019-03-29T16:52:25.380Z,101518.66
2019-03-29T16:54:56.274Z,101518.45
2019-03-29T16:57:26.106Z,101515.97
2019-03-29T16:59:56.748Z,101514.72
2019-03-29T17:02:28.602Z,101515.81
2019-03-29T17:04:57.406Z,101510.36
2019-03-29T17:07:28.205Z,101511.33
2019-03-29T17:09:56.926Z,101509.14
2019-03-29T17:12:28.664Z,101513.31
2019-03-29T17:14:57.530Z,101507.13
2019-03-29T17:17:26.392Z,101503.80
2019-03-29T17:19:58.140Z,101505.00
2019-03-29T17:22:26.881Z,101506.05
2019-03-29T17:24:58.338Z,101508.90
2019-03-29T17:27:27.043Z,101504.34
2019-03-29T17:29:56.112Z,101509.22
2019-03-29T17:32:25.853Z,101507.11
2019-03-29T17:34:55.128Z,101507.96
2019-03-29T17:37:28.060Z,101507.02
2019-03-29T17:39:56.861Z,101502.62
2019-03-29T17:42:25.916Z,101503.16
2019-03-29T17:44:58.968Z,101500.16
2019-03-29T17:47:27.673Z,101495.27
2019-03-29T17:49:56.589Z,101500.05
2019-03-29T17:52:35.878Z,101500.41
2019-03-29T17:55:05.577Z,101499.87
2019-03-29T17:57:35.879Z,101508.46
2019-03-29T18:00:06.871Z,101507.29
2019-03-29T18:02:36.204Z,101508.75
2019-03-29T18:05:06.430Z,101513.50
2019-03-29T18:07:35.251Z,101517.56
2019-03-29T18:10:26.944Z,101517.84
2019-03-29T18:12:55.908Z,101514.43
2019-03-29T18:15:25.320Z,101518.30
2019-03-29T18:17:54.449Z,101521.37
2019-03-29T18:20:23.683Z,101519.73
2019-03-29T18:22:53.148Z,101528.53
2019-03-29T18:25:24.565Z,101516.20
2019-03-29T18:27:55.067Z,101519.03
2019-03-29T18:30:37.164Z,101436.66
2019-03-29T18:33:06.626Z,101512.80
2019-03-29T18:35:39.380Z,101514.30
2019-03-29T18:38:08.482Z,101513.00
2019-03-29T18:40:37.185Z,101508.74
2019-03-29T18:43:05.941Z,101510.80
2019-03-29T18:45:34.963Z,101513.88
2019-03-29T18:48:03.714Z,101511.14
2019-03-29T18:50:32.437Z,101508.84
2019-03-29T18:53:01.484Z,101513.00
2019-03-29T18:55:30.325Z,101513.23
2019-03-29T18:57:59.298Z,101509.00
2019-03-29T19:00:32.975Z,101510.89
2019-03-29T19:03:02.119Z,101511.25
2019-03-29T19:05:31.579Z,101515.14
2019-03-29T19:08:00.510Z,101518.41
2019-03-29T19:10:29.446Z,101501.77
2019-03-29T19:12:58.697Z,101501.77
2019-03-29T19:15:27.787Z,101514.14
2019-03-29T19:17:56.693Z,101513.77
2019-03-29T19:20:27.866Z,101512.34
2019-03-29T19:22:56.726Z,101517.20
2019-03-29T19:25:25.748Z,101513.88
2019-03-29T19:27:55.081Z,101514.73
2019-03-29T19:30:24.685Z,101520.00
2019-03-29T19:32:53.436Z,101520.77
2019-03-29T19:35:22.978Z,101520.34
2019-03-29T19:37:52.150Z,101515.75
2019-03-29T19:40:21.755Z,101512.53
2019-03-29T19:42:51.772Z,101514.70
2019-03-29T19:45:21.559Z,101516.32
2019-03-29T19:47:51.450Z,101516.55
2019-03-29T19:50:20.852Z,101519.56
2019-03-29T19:52:50.240Z,101513.50
2019-03-29T19:55:19.540Z,101511.67
2019-03-29T19:57:48.564Z,101515.86
2019-03-29T20:00:18.632Z,101517.09
2019-03-29T20:02:48.263Z,101518.80
2019-03-29T20:05:28.492Z,101513.12
2019-03-29T20:07:58.913Z,101510.25
2019-03-29T20:10:27.033Z,101515.34
2019-03-29T20:12:56.677Z,101513.39
2019-03-29T20:15:25.887Z,101513.19
2019-03-29T20:17:55.810Z,101509.31
2019-03-29T20:20:26.245Z,101509.41
2019-03-29T20:22:55.501Z,101508.95
2019-03-29T20:25:25.281Z,101511.03
2019-03-29T20:27:58.173Z,101510.00
2019-03-29T20:30:26.039Z,101514.91
2019-03-29T20:32:54.870Z,101506.81
2019-03-29T20:35:23.771Z,101506.55
2019-03-29T20:37:53.454Z,101506.31
2019-03-29T20:40:23.166Z,101502.10
2019-03-29T20:42:52.308Z,101505.29
2019-03-29T20:45:21.762Z,101504.03
2019-03-29T20:47:52.006Z,101496.73
2019-03-29T20:50:20.810Z,101500.42
2019-03-29T20:52:49.950Z,101497.58
2019-03-29T20:55:19.281Z,101492.35
2019-03-29T20:57:48.312Z,101493.73
2019-03-29T21:00:18.773Z,101494.45
2019-03-29T21:02:46.698Z,101490.38
2019-03-29T21:05:17.562Z,101490.39
2019-03-29T21:07:46.758Z,101491.37
2019-03-29T21:10:26.268Z,101487.28
2019-03-29T21:12:55.416Z,101485.88
2019-03-29T21:15:24.521Z,101484.44
2019-03-29T21:17:56.929Z,101485.88
2019-03-29T21:20:24.593Z,101485.06
2019-03-29T21:22:53.871Z,101479.36
2019-03-29T21:25:22.926Z,101482.63
2019-03-29T21:27:52.197Z,101482.69
2019-03-29T21:30:21.374Z,101475.59
2019-03-29T21:32:50.338Z,101482.30
2019-03-29T21:35:19.400Z,101484.18
2019-03-29T21:37:48.418Z,101480.63
2019-03-29T21:40:17.558Z,101481.13
2019-03-29T21:42:46.694Z,101481.26
2019-03-29T21:45:27.951Z,101479.09
2019-03-29T21:48:01.144Z,101471.28
2019-03-29T21:50:17.608Z,101474.33
2019-03-29T21:52:46.406Z,101469.22
2019-03-29T21:55:15.210Z,101460.60
2019-03-29T21:57:44.170Z,101467.73
2019-03-29T22:00:13.809Z,101458.51
2019-03-29T22:02:42.610Z,101465.67
2019-03-29T22:05:11.552Z,101459.91
2019-03-29T22:07:40.379Z,101461.34
2019-03-29T22:10:10.400Z,101461.77
2019-03-29T22:12:42.683Z,101461.84
2019-03-29T22:15:10.268Z,101466.77
2019-03-29T22:17:38.987Z,101465.96
2019-03-29T22:20:09.299Z,101472.71
2019-03-29T22:22:38.241Z,101465.16
2019-03-29T22:25:28.077Z,101461.16
2019-03-29T22:27:57.012Z,101459.01
2019-03-29T22:30:25.947Z,101460.34
2019-03-29T22:32:54.794Z,101454.16
2019-03-29T22:35:23.533Z,101449.30
2019-03-29T22:37:52.458Z,101449.77
2019-03-29T22:40:21.209Z,101454.27
2019-03-29T22:42:50.101Z,101450.70
2019-03-29T22:45:18.943Z,101450.34
2019-03-29T22:47:47.739Z,101444.58
2019-03-29T22:50:16.599Z,101448.56
2019-03-29T22:52:45.441Z,101446.89
2019-03-29T22:55:14.208Z,101448.70
2019-03-29T22:57:43.155Z,101447.31
2019-03-29T23:00:36.758Z,101443.30
2019-03-29T23:03:06.282Z,101446.45
2019-03-29T23:05:35.125Z,101439.83
2019-03-29T23:08:04.002Z,101436.72
2019-03-29T23:10:32.824Z,101432.74
2019-03-29T23:13:01.543Z,101427.45
2019-03-29T23:15:30.265Z,101430.58
2019-03-29T23:17:59.161Z,101427.48
2019-03-29T23:20:27.964Z,101423.94
2019-03-29T23:22:56.811Z,101419.08
2019-03-29T23:25:25.701Z,101422.20
2019-03-29T23:27:54.533Z,101418.64
2019-03-29T23:30:23.367Z,101419.08
2019-03-29T23:32:52.119Z,101416.44
2019-03-29T23:35:20.961Z,101412.44
2019-03-29T23:37:49.641Z,101411.12
2019-03-29T23:40:18.313Z,101412.45
2019-03-29T23:42:47.223Z,101413.34
2019-03-29T23:45:15.939Z,101411.14
2019-03-29T23:47:44.689Z,101402.28
2019-03-29T23:50:13.430Z,101399.17
2019-03-29T23:52:42.210Z,101396.96
2019-03-29T23:55:10.875Z,101400.53
2019-03-29T23:57:39.570Z,101396.52
